cloudbaseCU.php : Version 1.5 - copyright 2013 Silver Acorn Limited
Date/Time : Sun, 15 Dec 2019 15:48:49 (Day)
Time Zone : Europe/London (GMT+0 hours)
INPUT ITEM: RAW DATA -> DERIVED
    Current temp : 2.7 -> 2.7 °C
    Dewpoint : 0.4 -> 0.4 °C
    Rain Fall : 0.0 -> 0.0 mm
    Barometer : 988.1 -> 988 hPa
    Humidity : 35 -> 35 %
    Wind Speed : 0.0 -> 0.0 mph
    Wind Dir : 198.0 -> 198.0 degrees
    Cloud Altitude : 920 -> 920 ft (AGL)
    Latitude : 54 -> N = Northern Hemisphere
    Season : -> Autumn
    Moon Age : 18 -> 18 days
    Is daylight : 1 -> Day
    Realtime file Interval : 15 -> 15 Seconds
    Tag file time Interval : 5 -> 5 Minutes
CUMULUS CONDITIONS
    Cumulus conditions not in use
    Zambretti # : 0 -> 0
METAR CONDITONS - Metar Times UNC, Update Station times based on timezone setting
    $pathToMetFile : ./cache/
    Metar - Rawdata : 2019/12/15 15:20 EGAC 151520Z AUTO 17003KT 9999 NCD 03/01 Q0987
    Metar - Trimmed : 151520Z AUTO 17003KT 9999 NCD 03/01 Q0987
    Metar - Decoded : Not Raining; Sunny
    Now : 1576424929 seconds or Station Time of 15:48:49
    Metar report timestamp : 1576423200 seconds
    Age of File : 28.82 minutes
    When to update Metar : 1576423740 seconds (When station time ~ 15:29:00)
        (Metar report timestamp plus 39 mins refresh time)
    Next Download in : -19.82 Minutes (if  '-' then refresh page, if still '-' then download overdue!)
    Metar file : New File downloaded
    Note:- Metar updates are usually Hourly unless AUTO when they may update every 30 minutes
OUTPUT DATA

    $showAGLASL : true
Cloud Temp : -2 °C
Background image file name : ./images/cb/cb-bg-00autd.png
    $useWXrain : true
    $tagint : 5
    Last rain : 26 minutes ago
    $wxrain : false
"useWXrain" results :-
    No rain in last 5 minutes -> Not raining
SETTINGS
    $realtime : cloudbase.txt
    $metarICAO : EGAC
    $pathToMetFile : ./cache/
    $tz : Europe/London - The setting in this script, may be overidden by the Saratoga SITE setting
    $pathToImages : ./images/cb/
    $pathToMoonImages : ./images/cb/moon/
    $translate : true
    $switchSeasons : true
    $showCldSource : true
    $showCloudTemp : true
    $showCaption : true
    $showMoon : true
    $showScale : true
    $showWinsock : false
    $showWindDir : false
    $showWindSpd : false
    $showTemp : false
    $showHumidity : false
    $showBaro : false
    $alwaysShowCloud : false
    $useCUHeight : false
    $getMetar : true
    $metarRefresh : true
    $useMetarAtNight : true
    $onlyUseMetar : true
    $reportMistAt : 25 ft
    $stationAltitude : 0 ft